Time;durP1;ratioP1;P1;durP2;ratioP2;P2;SDS_P1;SDS_P2;PMS_P1;PMS_P2;Temp;Humidity;BMP_temperature;BMP_pressure;BME280_temperature;BME280_humidity;BME280_pressure;Samples;Min_cycle;Max_cycle;Signal;HPM_P1;HPM_P2
2022/10/28 00:00:29;;;;;;;7.13;4.43;;;;;;;11.94;73.40;96276.75;5048424;28;20260;-70
2022/10/28 00:02:56;;;;;;;13.65;5.13;;;;;;;11.75;74.18;96281.34;5046199;28;20280;-71
2022/10/28 00:05:24;;;;;;;8.18;5.43;;;;;;;11.80;74.28;96276.19;5047602;28;20203;-71
2022/10/28 00:07:51;;;;;;;8.10;6.03;;;;;;;11.80;74.41;96274.47;5047903;28;20540;-70
2022/10/28 00:10:18;;;;;;;5.88;5.22;;;;;;;12.00;73.28;96275.81;5046152;28;20309;-72
2022/10/28 00:12:44;;;;;;;8.07;5.65;;;;;;;12.03;73.06;96271.50;5048463;28;20210;-71
2022/10/28 00:15:11;;;;;;;7.03;5.50;;;;;;;12.04;72.86;96270.63;5047804;28;20272;-71
2022/10/28 00:17:38;;;;;;;10.88;5.60;;;;;;;11.80;73.57;96271.09;5047864;28;20319;-71
2022/10/28 00:20:05;;;;;;;9.73;5.20;;;;;;;11.85;73.33;96266.75;5047592;28;20319;-71
2022/10/28 00:22:33;;;;;;;7.88;6.07;;;;;;;11.58;74.44;96276.56;5047325;28;20287;-71
2022/10/28 00:25:00;;;;;;;5.85;4.70;;;;;;;11.43;75.00;96271.72;5048380;28;20284;-71
2022/10/28 00:27:28;;;;;;;5.57;5.07;;;;;;;11.48;74.94;96272.50;5048450;28;20230;-72
2022/10/28 00:29:55;;;;;;;7.40;5.53;;;;;;;11.70;74.03;96272.94;5048185;28;20211;-72
2022/10/28 00:32:22;;;;;;;11.15;5.20;;;;;;;11.70;74.09;96267.00;5047695;28;20198;-71
2022/10/28 00:34:49;;;;;;;11.73;5.57;;;;;;;11.64;74.18;96267.09;5046264;28;20210;-71
2022/10/28 00:37:15;;;;;;;5.30;4.75;;;;;;;11.81;73.63;96267.69;5048437;28;20229;-71
2022/10/28 00:39:44;;;;;;;6.00;4.50;;;;;;;11.95;73.07;96260.59;5044723;28;20282;-71
2022/10/28 00:42:11;;;;;;;6.72;5.18;;;;;;;12.04;72.42;96262.13;5044342;28;20282;-73
2022/10/28 00:44:55;;;;;;;10.90;5.60;;;;;;;12.12;71.99;96262.81;5045928;28;20363;-71
2022/10/28 00:47:31;;;;;;;8.48;6.18;;;;;;;12.07;71.99;96260.38;5047342;28;20310;-71
2022/10/28 00:50:05;;;;;;;9.57;5.75;;;;;;;11.81;73.04;96265.97;5047665;28;20263;-74
2022/10/28 00:52:32;;;;;;;8.20;4.78;;;;;;;11.57;73.81;96266.41;5048290;28;20667;-71
2022/10/28 00:55:02;;;;;;;5.22;4.75;;;;;;;11.75;73.29;96270.31;5048206;28;20226;-71
2022/10/28 00:57:33;;;;;;;8.07;5.07;;;;;;;11.82;72.91;96266.81;5048884;28;20229;-70
2022/10/28 01:00:03;;;;;;;11.82;4.95;;;;;;;11.86;72.43;96264.19;5048171;28;20654;-70
2022/10/28 01:02:32;;;;;;;9.70;4.80;;;;;;;11.74;72.93;96272.00;5048607;28;21525;-71
2022/10/28 01:04:59;;;;;;;6.53;5.10;;;;;;;11.77;72.68;96268.59;5047187;28;20238;-71
2022/10/28 01:07:26;;;;;;;9.15;4.68;;;;;;;11.81;72.82;96270.22;5046693;28;20229;-70
2022/10/28 01:09:53;;;;;;;5.00;4.47;;;;;;;11.92;71.92;96273.38;5046360;28;21825;-70
2022/10/28 01:12:31;;;;;;;5.43;4.93;;;;;;;11.92;71.99;96269.13;5047163;28;20236;-72
2022/10/28 01:15:10;;;;;;;10.57;4.68;;;;;;;11.81;72.61;96265.13;5045870;28;20206;-70
2022/10/28 01:17:54;;;;;;;6.30;4.50;;;;;;;11.61;73.01;96264.66;5047106;28;20202;-71
2022/10/28 01:21:03;;;;;;;5.00;4.50;;;;;;;11.68;73.07;96259.38;5046193;28;20240;-71
2022/10/28 01:23:36;;;;;;;7.50;4.90;;;;;;;11.52;72.93;96265.63;5046826;28;20226;-72
2022/10/28 01:26:25;;;;;;;6.60;5.30;;;;;;;11.35;73.77;96268.50;5046050;28;20268;-72
2022/10/28 01:29:14;;;;;;;6.07;4.70;;;;;;;11.55;73.03;96268.13;5046674;28;20206;-71
2022/10/28 01:31:46;;;;;;;9.38;4.97;;;;;;;11.21;74.46;96262.78;5045599;28;20237;-71
2022/10/28 01:34:21;;;;;;;5.75;5.00;;;;;;;11.24;74.46;96257.66;5046039;28;20271;-71
2022/10/28 01:36:58;;;;;;;5.25;4.85;;;;;;;11.45;73.46;96262.34;5046833;28;20268;-71
2022/10/28 01:39:33;;;;;;;4.90;4.38;;;;;;;11.51;72.83;96269.91;5047112;28;21129;-71
2022/10/28 01:42:11;;;;;;;4.32;3.92;;;;;;;11.25;73.68;96274.59;5047696;28;20205;-71
2022/10/28 01:44:46;;;;;;;6.45;4.40;;;;;;;11.27;74.10;96275.41;5047170;28;20256;-71
2022/10/28 01:47:19;;;;;;;5.95;4.53;;;;;;;11.44;73.04;96275.94;5047953;28;20267;-70
2022/10/28 01:49:49;;;;;;;7.72;4.38;;;;;;;11.46;72.97;96275.94;5047012;28;20207;-70
2022/10/28 01:52:21;;;;;;;11.60;4.90;;;;;;;11.40;73.34;96273.47;5047547;28;20202;-69
2022/10/28 01:54:50;;;;;;;7.05;4.97;;;;;;;11.37;73.37;96266.75;5047457;28;20289;-71
2022/10/28 01:57:19;;;;;;;7.80;4.63;;;;;;;11.32;73.67;96270.25;5051464;28;20260;-71
2022/10/28 01:59:48;;;;;;;5.45;4.22;;;;;;;11.42;73.31;96271.75;5051300;28;20280;-71
2022/10/28 02:02:18;;;;;;;4.55;4.20;;;;;;;11.38;73.42;96281.16;5051496;28;20257;-71
2022/10/28 02:04:45;;;;;;;4.60;3.90;;;;;;;11.53;72.66;96273.25;5050915;28;20753;-71
2022/10/28 02:07:11;;;;;;;4.25;3.92;;;;;;;11.54;72.47;96272.38;5050687;28;20763;-70
2022/10/28 02:09:51;;;;;;;5.80;4.20;;;;;;;11.55;72.23;96278.31;5051376;28;20267;-70
2022/10/28 02:12:26;;;;;;;5.20;4.70;;;;;;;11.37;72.82;96281.19;5050680;28;20762;-73
2022/10/28 02:15:16;;;;;;;5.70;4.38;;;;;;;11.30;73.17;96267.72;5050808;28;20210;-70
2022/10/28 02:17:53;;;;;;;4.57;4.18;;;;;;;11.16;73.76;96267.09;5050320;28;20260;-70
2022/10/28 02:20:32;;;;;;;5.20;4.60;;;;;;;10.99;74.06;96277.56;5050142;28;20289;-72
2022/10/28 02:23:10;;;;;;;4.95;4.47;;;;;;;10.90;75.04;96280.25;5050216;28;20241;-71
2022/10/28 02:25:42;;;;;;;5.60;5.05;;;;;;;11.03;74.46;96268.19;5050159;28;20654;-71
2022/10/28 02:28:12;;;;;;;5.40;4.47;;;;;;;10.99;74.54;96275.03;5050557;28;20322;-73
2022/10/28 02:30:46;;;;;;;8.02;4.63;;;;;;;10.99;74.43;96275.03;5050599;28;20217;-70
2022/10/28 02:33:19;;;;;;;5.57;4.60;;;;;;;11.03;74.10;96273.28;5049888;28;20252;-71
2022/10/28 02:35:50;;;;;;;5.68;5.13;;;;;;;11.03;74.40;96284.28;5050623;28;20303;-71
2022/10/28 02:38:21;;;;;;;9.13;4.50;;;;;;;10.98;74.47;96290.31;5050693;28;20202;-72
2022/10/28 02:40:53;;;;;;;6.35;4.38;;;;;;;10.78;74.98;96299.09;5050292;28;20745;-71
2022/10/28 02:43:23;;;;;;;7.38;4.75;;;;;;;10.91;74.81;96287.84;5050140;28;20617;-72
2022/10/28 02:45:55;;;;;;;8.38;4.30;;;;;;;11.02;74.53;96286.84;5050984;28;20199;-72
2022/10/28 02:48:28;;;;;;;8.00;5.65;;;;;;;10.91;74.22;96295.47;5050243;28;20237;-73
2022/10/28 02:51:02;;;;;;;5.20;4.20;;;;;;;10.68;75.30;96294.13;5050080;28;20210;-72
2022/10/28 02:53:36;;;;;;;6.57;4.80;;;;;;;10.86;75.21;96287.09;5050643;28;20202;-71
2022/10/28 02:56:06;;;;;;;6.32;5.35;;;;;;;10.91;74.73;96287.84;5049730;28;20244;-70
2022/10/28 02:58:38;;;;;;;7.20;4.90;;;;;;;10.69;75.19;96294.13;5049826;28;20673;-70
2022/10/28 03:01:06;;;;;;;7.00;4.55;;;;;;;10.73;75.29;96289.84;5049296;28;20210;-71
2022/10/28 03:03:34;;;;;;;5.35;4.85;;;;;;;10.98;74.61;96291.16;5050416;28;20248;-71
2022/10/28 03:06:00;;;;;;;7.50;4.93;;;;;;;11.14;73.67;96296.81;5049707;28;20614;-71
2022/10/28 03:08:27;;;;;;;5.50;4.93;;;;;;;10.87;74.05;96290.47;5048128;28;20222;-71
2022/10/28 03:10:54;;;;;;;6.65;4.28;;;;;;;10.76;74.81;96288.09;5049344;28;20206;-71
2022/10/28 03:13:21;;;;;;;5.55;5.05;;;;;;;11.01;73.85;96286.00;5048762;28;20993;-72
2022/10/28 03:15:47;;;;;;;9.43;5.60;;;;;;;10.65;74.66;96287.38;5048991;28;20203;-71
2022/10/28 03:18:14;;;;;;;5.90;5.05;;;;;;;10.62;74.84;96292.53;5048336;28;20199;-72
2022/10/28 03:20:42;;;;;;;5.55;4.95;;;;;;;10.46;75.38;96291.06;5048672;28;20897;-71
2022/10/28 03:23:09;;;;;;;8.48;5.57;;;;;;;10.61;75.37;96288.31;5048077;28;20279;-71
2022/10/28 03:25:35;;;;;;;9.65;5.53;;;;;;;10.53;75.14;96290.97;5049524;28;20328;-72
2022/10/28 03:28:02;;;;;;;7.47;5.38;;;;;;;10.63;74.92;96289.16;5048303;28;20215;-71
2022/10/28 03:30:29;;;;;;;5.55;4.95;;;;;;;10.57;75.30;96282.44;5048377;28;20206;-71
2022/10/28 03:32:56;;;;;;;8.93;5.57;;;;;;;10.47;75.38;96290.19;5048112;28;20570;-71
2022/10/28 03:35:22;;;;;;;8.13;5.97;;;;;;;10.36;75.27;96284.44;5048424;28;20796;-72
2022/10/28 03:37:50;;;;;;;6.45;4.80;;;;;;;10.20;76.34;96289.69;5048074;28;20306;-71
2022/10/28 03:40:17;;;;;;;13.38;5.97;;;;;;;10.31;75.97;96286.19;5047906;28;20204;-71
2022/10/28 03:42:44;;;;;;;30.15;18.00;;;;;;;10.31;75.59;96294.66;5050017;28;20376;-72
2022/10/28 03:45:11;;;;;;;31.42;18.10;;;;;;;10.37;75.67;96301.38;5046989;28;20291;-71
2022/10/28 03:47:38;;;;;;;17.45;9.93;;;;;;;10.38;75.44;96293.72;5048713;28;20214;-72
2022/10/28 03:50:05;;;;;;;13.07;6.50;;;;;;;10.49;75.11;96291.03;5047690;28;20304;-72
2022/10/28 03:52:32;;;;;;;11.45;6.20;;;;;;;10.43;75.12;96293.63;5048425;28;20214;-73
2022/10/28 03:55:00;;;;;;;15.30;6.57;;;;;;;10.40;75.43;96303.84;5048187;28;20206;-73
2022/10/28 03:57:30;;;;;;;13.32;6.15;;;;;;;10.51;75.25;96295.22;5047799;28;20233;-72
2022/10/28 03:59:57;;;;;;;7.22;5.88;;;;;;;10.49;75.16;96298.63;5048821;28;20289;-72
2022/10/28 04:02:25;;;;;;;8.90;6.10;;;;;;;10.50;74.77;96302.88;5049793;28;20233;-73
2022/10/28 04:04:52;;;;;;;13.82;6.75;;;;;;;10.51;74.66;96299.47;5051507;28;20198;-72
2022/10/28 04:07:18;;;;;;;11.98;5.40;;;;;;;10.36;74.65;96295.44;5049035;28;20230;-72
2022/10/28 04:09:48;;;;;;;10.75;9.48;;;;;;;10.15;75.93;96306.66;5048768;28;20569;-70
2022/10/28 04:12:16;;;;;;;38.20;21.42;;;;;;;10.19;75.68;96298.19;5048329;28;20293;-71
2022/10/28 04:14:43;;;;;;;26.13;17.48;;;;;;;10.29;75.22;96309.06;5049133;28;20637;-71
2022/10/28 04:17:10;;;;;;;11.50;8.00;;;;;;;10.32;75.04;96303.97;5048941;28;20295;-71
2022/10/28 04:19:37;;;;;;;11.68;7.38;;;;;;;10.32;75.16;96310.75;5048319;28;20310;-70
2022/10/28 04:22:03;;;;;;;17.55;8.02;;;;;;;10.31;75.10;96307.34;5048634;28;20225;-71
2022/10/28 04:24:30;;;;;;;68.38;35.08;;;;;;;10.30;75.06;96307.38;5049744;28;20202;-71
2022/10/28 04:26:57;;;;;;;44.97;24.00;;;;;;;10.10;75.59;96300.81;5048022;28;20253;-71
2022/10/28 04:29:25;;;;;;;14.57;11.43;;;;;;;10.04;76.05;96303.41;5048586;28;20886;-71
2022/10/28 04:31:52;;;;;;;16.17;9.38;;;;;;;9.95;76.68;96298.44;5048975;28;20202;-71
2022/10/28 04:34:19;;;;;;;24.98;8.68;;;;;;;9.86;76.63;96298.56;5048303;28;20203;-73
2022/10/28 04:36:46;;;;;;;11.18;8.13;;;;;;;9.47;77.79;96310.78;5048422;28;20206;-72
2022/10/28 04:39:12;;;;;;;13.57;8.60;;;;;;;9.30;79.05;96310.09;5050156;28;20206;-71
2022/10/28 04:41:40;;;;;;;16.90;9.45;;;;;;;9.26;79.18;96305.91;5046736;28;20279;-72
2022/10/28 04:44:06;;;;;;;14.68;8.35;;;;;;;9.75;77.96;96301.19;5048667;28;21131;-72
2022/10/28 04:46:35;;;;;;;22.85;9.13;;;;;;;9.62;78.14;96296.28;5048200;28;20268;-74
2022/10/28 04:49:02;;;;;;;13.57;9.57;;;;;;;9.20;79.81;96305.94;5048762;28;21073;-70
2022/10/28 04:51:28;;;;;;;32.97;12.43;;;;;;;9.00;82.02;96297.66;5048109;28;20203;-71
2022/10/28 04:53:55;;;;;;;29.60;11.82;;;;;;;8.88;81.86;96303.69;5048754;28;20295;-71
2022/10/28 04:56:22;;;;;;;17.70;9.02;;;;;;;8.79;84.27;96298.66;5047669;28;20672;-72
2022/10/28 04:58:48;;;;;;;23.17;8.85;;;;;;;8.80;83.93;96301.19;5048782;28;20203;-71
2022/10/28 05:01:15;;;;;;;16.35;8.73;;;;;;;8.58;85.28;96294.59;5048081;28;20210;-73
2022/10/28 05:03:43;;;;;;;18.00;7.30;;;;;;;8.34;86.92;96304.84;5048702;28;20202;-71
2022/10/28 05:06:10;;;;;;;13.20;8.82;;;;;;;8.51;86.93;96300.53;5047838;28;20203;-71
2022/10/28 05:08:36;;;;;;;13.48;8.73;;;;;;;8.71;86.93;96306.31;5048092;28;20222;-74
2022/10/28 05:11:03;;;;;;;16.13;8.95;;;;;;;9.12;85.01;96302.66;5047642;28;20528;-71
2022/10/28 05:13:30;;;;;;;24.20;10.45;;;;;;;9.55;82.15;96306.47;5047977;28;20275;-73
2022/10/28 05:15:57;;;;;;;12.00;8.50;;;;;;;9.76;80.58;96307.13;5047873;28;20856;-71
2022/10/28 05:18:23;;;;;;;21.55;10.80;;;;;;;9.80;80.51;96313.84;5048459;28;20206;-73
2022/10/28 05:20:53;;;;;;;26.63;14.15;;;;;;;9.57;81.06;96318.31;5048547;28;20733;-71
2022/10/28 05:23:20;;;;;;;50.22;20.27;;;;;;;9.43;81.30;96319.28;5048220;28;20230;-71
2022/10/28 05:25:47;;;;;;;35.88;18.02;;;;;;;9.61;80.91;96317.44;5047688;28;20287;-71
2022/10/28 05:28:14;;;;;;;33.33;16.08;;;;;;;9.88;80.36;96327.31;5047756;28;20687;-71
2022/10/28 05:30:40;;;;;;;31.20;15.05;;;;;;;10.27;78.76;96330.28;5050154;28;20234;-71
2022/10/28 05:33:07;;;;;;;17.08;11.80;;;;;;;10.95;75.62;96321.72;5051298;28;20234;-70
2022/10/28 05:35:34;;;;;;;15.40;10.35;;;;;;;10.53;75.98;96323.16;5052081;28;20291;-71
2022/10/28 05:38:02;;;;;;;16.63;9.15;;;;;;;10.62;76.23;96328.13;5051995;28;20211;-70
2022/10/28 05:40:31;;;;;;;19.50;9.18;;;;;;;10.96;75.43;96330.19;5051729;28;20206;-71
2022/10/28 05:42:58;;;;;;;21.67;11.93;;;;;;;10.81;75.20;96333.81;5051299;28;20210;-72
2022/10/28 05:45:24;;;;;;;26.70;12.00;;;;;;;10.76;75.46;96336.41;5052214;28;20283;-72
2022/10/28 05:47:51;;;;;;;28.42;12.48;;;;;;;11.03;74.00;96339.41;5051341;28;20287;-71
2022/10/28 05:50:20;;;;;;;33.70;12.35;;;;;;;10.92;74.62;96342.09;5052013;28;20224;-71
2022/10/28 05:52:47;;;;;;;22.55;11.40;;;;;;;11.25;72.65;96345.84;5051560;28;20229;-72
2022/10/28 05:55:18;;;;;;;29.55;10.45;;;;;;;11.55;71.75;96340.25;5051579;28;20195;-74
2022/10/28 05:57:44;;;;;;;21.77;11.05;;;;;;;11.81;70.71;96341.53;5051113;28;20680;-70
2022/10/28 06:00:12;;;;;;;22.02;10.52;;;;;;;12.40;68.81;96337.00;5051350;28;20692;-71
2022/10/28 06:02:39;;;;;;;24.33;11.38;;;;;;;13.21;66.22;96346.31;5051034;28;20271;-72
2022/10/28 06:05:07;;;;;;;26.63;11.43;;;;;;;14.21;62.71;96341.19;5052331;28;20206;-72
2022/10/28 06:07:34;;;;;;;30.35;11.00;;;;;;;14.92;59.64;96345.97;5051916;28;20222;-71
2022/10/28 06:10:00;;;;;;;22.40;10.98;;;;;;;15.21;58.57;96334.00;5051147;28;20934;-71
2022/10/28 06:12:29;;;;;;;16.67;11.65;;;;;;;15.60;57.42;96343.00;5052646;28;20275;-73
2022/10/28 06:14:55;;;;;;;17.25;11.13;;;;;;;16.36;55.43;96336.97;5051748;28;20213;-71
2022/10/28 06:17:22;;;;;;;15.20;10.48;;;;;;;17.11;53.32;96347.03;5052335;28;20221;-71
2022/10/28 06:19:49;;;;;;;19.73;10.02;;;;;;;17.50;51.82;96345.47;5052295;28;20763;-71
2022/10/28 06:22:16;;;;;;;19.33;11.00;;;;;;;16.88;53.09;96353.03;5051770;28;20207;-73
2022/10/28 06:24:42;;;;;;;22.05;10.60;;;;;;;16.07;55.13;96363.66;5049879;28;20213;-73
2022/10/28 06:27:09;;;;;;;13.55;10.77;;;;;;;15.43;56.72;96358.06;5051774;28;20206;-72
2022/10/28 06:29:37;;;;;;;22.23;11.45;;;;;;;14.84;58.90;96362.47;5052026;28;20246;-73
2022/10/28 06:32:04;;;;;;;31.35;13.40;;;;;;;14.32;60.73;96363.06;5052870;28;20210;-71
2022/10/28 06:34:31;;;;;;;27.27;12.57;;;;;;;13.81;63.26;96361.88;5051955;28;21117;-71
2022/10/28 06:36:58;;;;;;;25.67;12.32;;;;;;;13.59;64.85;96366.69;5051669;28;20210;-74
2022/10/28 06:39:25;;;;;;;19.52;11.27;;;;;;;13.15;65.96;96361.72;5050766;28;21090;-71
2022/10/28 06:41:52;;;;;;;23.30;12.23;;;;;;;12.80;67.00;96365.91;5051292;28;20208;-71
2022/10/28 06:44:18;;;;;;;20.10;11.05;;;;;;;12.70;68.25;96366.13;5051574;28;20198;-71
2022/10/28 06:46:46;;;;;;;16.63;10.07;;;;;;;12.74;68.04;96368.59;5052494;28;20617;-71
2022/10/28 06:49:13;;;;;;;26.98;9.05;;;;;;;12.83;68.19;96353.09;5050217;28;20323;-71
2022/10/28 06:51:40;;;;;;;21.27;9.82;;;;;;;13.90;64.50;96358.22;5050372;28;20268;-70
2022/10/28 06:54:07;;;;;;;17.83;9.98;;;;;;;14.95;61.28;96353.56;5049336;28;21080;-71
2022/10/28 06:56:33;;;;;;;14.52;9.63;;;;;;;14.99;60.74;96359.44;5050639;28;20210;-72
2022/10/28 06:59:00;;;;;;;18.77;10.13;;;;;;;14.44;62.20;96360.19;5050276;28;20283;-72
2022/10/28 07:01:27;;;;;;;21.10;9.95;;;;;;;13.90;63.98;96360.75;5051062;28;20263;-72
2022/10/28 07:03:55;;;;;;;24.33;11.55;;;;;;;13.92;64.34;96364.13;5050032;28;20199;-73
2022/10/28 07:06:21;;;;;;;19.75;11.57;;;;;;;14.03;64.49;96357.03;5049834;28;20267;-72
2022/10/28 07:08:48;;;;;;;24.70;12.25;;;;;;;13.89;64.71;96359.09;5049858;28;20311;-72
2022/10/28 07:11:15;;;;;;;24.60;12.60;;;;;;;13.94;64.35;96362.38;5049593;28;20294;-72
2022/10/28 07:13:41;;;;;;;21.05;12.43;;;;;;;14.06;63.34;96361.22;5049572;28;20229;-71
2022/10/28 07:16:09;;;;;;;18.45;11.30;;;;;;;13.82;64.90;96360.16;5049295;28;20210;-71
2022/10/28 07:18:35;;;;;;;31.55;17.30;;;;;;;13.79;65.07;96368.72;5050494;28;20198;-70
2022/10/28 07:21:04;;;;;;;49.10;18.25;;;;;;;14.50;62.58;96363.44;5049807;28;20680;-72
2022/10/28 07:23:31;;;;;;;41.25;16.40;;;;;;;14.72;61.82;96355.97;5049984;28;20820;-73
2022/10/28 07:25:58;;;;;;;27.55;14.23;;;;;;;15.05;61.20;96353.31;5048749;28;20832;-70
2022/10/28 07:28:26;;;;;;;25.77;14.63;;;;;;;15.70;58.76;96350.38;5049376;28;20217;-71
2022/10/28 07:30:53;;;;;;;19.48;12.63;;;;;;;16.41;56.91;96355.59;5049339;28;20704;-71
2022/10/28 07:33:20;;;;;;;20.88;11.65;;;;;;;18.67;51.07;96347.38;5049754;28;20647;-72
2022/10/28 07:35:46;;;;;;;23.10;12.57;;;;;;;19.83;47.38;96347.03;5048598;28;20672;-72
2022/10/28 07:38:15;;;;;;;24.23;11.70;;;;;;;20.17;46.02;96348.78;5049489;28;20202;-72
2022/10/28 07:40:41;;;;;;;16.35;11.77;;;;;;;19.19;47.77;96356.13;5049275;28;20206;-72
2022/10/28 07:43:08;;;;;;;25.85;12.68;;;;;;;18.55;49.71;96353.06;5049785;28;20287;-72
2022/10/28 07:45:35;;;;;;;17.98;12.23;;;;;;;18.28;50.44;96355.94;5049357;28;20287;-70
2022/10/28 07:48:02;;;;;;;21.55;12.38;;;;;;;18.50;50.02;96352.41;5049718;28;20206;-71
2022/10/28 07:50:29;;;;;;;27.50;12.30;;;;;;;18.20;50.69;96352.00;5049294;28;20318;-73
2022/10/28 07:52:55;;;;;;;25.65;13.95;;;;;;;18.80;48.87;96345.94;5049103;28;20737;-71
2022/10/28 07:55:24;;;;;;;22.65;11.73;;;;;;;19.03;48.58;96345.69;5048658;28;21807;-71
2022/10/28 07:57:51;;;;;;;21.77;13.57;;;;;;;21.14;44.12;96338.44;5048738;28;21264;-73
2022/10/28 08:00:18;;;;;;;17.67;12.73;;;;;;;22.86;40.48;96330.97;5048860;28;20754;-70
2022/10/28 08:02:45;;;;;;;18.63;12.15;;;;;;;24.50;37.47;96332.34;5049551;28;20301;-70
2022/10/28 08:05:11;;;;;;;18.35;11.63;;;;;;;26.33;33.43;96327.78;5047953;28;20696;-71
2022/10/28 08:07:38;;;;;;;24.83;11.77;;;;;;;27.83;31.22;96327.19;5048412;28;20315;-72
2022/10/28 08:10:06;;;;;;;17.52;11.75;;;;;;;28.41;29.90;96331.03;5048199;28;20246;-73
2022/10/28 08:12:34;;;;;;;24.02;11.55;;;;;;;27.61;30.26;96340.34;5049449;28;20263;-73
2022/10/28 08:15:01;;;;;;;17.13;11.82;;;;;;;26.92;31.43;96330.16;5047901;28;20357;-73
2022/10/28 08:17:28;;;;;;;21.17;10.75;;;;;;;28.18;29.94;96323.44;5048572;28;20202;-73
2022/10/28 08:19:55;;;;;;;21.98;12.10;;;;;;;30.35;26.79;96330.41;5048392;28;20279;-72
2022/10/28 08:22:21;;;;;;;19.40;12.25;;;;;;;32.14;24.31;96319.28;5048251;28;20237;-71
2022/10/28 08:24:48;;;;;;;16.80;11.20;;;;;;;31.07;25.11;96324.47;5048518;28;20206;-72
2022/10/28 08:27:15;;;;;;;15.55;11.45;;;;;;;31.78;24.59;96321.94;5048026;28;20206;-71
2022/10/28 08:29:43;;;;;;;16.20;11.90;;;;;;;30.53;25.98;96325.25;5049640;28;20644;-73
2022/10/28 08:32:10;;;;;;;30.75;12.43;;;;;;;29.91;26.85;96328.41;5049809;28;20262;-71
2022/10/28 08:34:36;;;;;;;27.90;11.75;;;;;;;30.59;26.20;96329.13;5047325;28;20284;-73
2022/10/28 08:37:03;;;;;;;30.13;13.90;;;;;;;31.14;25.45;96323.94;5048068;28;20696;-73
2022/10/28 08:39:30;;;;;;;20.58;10.90;;;;;;;29.48;27.73;96327.00;5046563;28;20664;-71
2022/10/28 08:42:15;;;;;;;11.65;10.00;;;;;;;28.98;27.64;96313.09;5047817;28;20279;-72
2022/10/28 08:44:56;;;;;;;20.27;11.73;;;;;;;30.70;25.86;96318.44;5046788;28;20240;-72
2022/10/28 08:47:44;;;;;;;15.20;10.57;;;;;;;30.39;25.59;96312.59;5047798;28;20299;-71
2022/10/28 08:50:14;;;;;;;20.75;8.35;;;;;;;29.78;26.49;96315.56;5048533;28;20333;-71
2022/10/28 08:52:48;;;;;;;19.48;10.18;;;;;;;28.47;28.58;96315.78;5048742;28;20252;-72
2022/10/28 08:55:18;;;;;;;30.20;10.23;;;;;;;30.39;26.44;96312.59;5048070;28;20194;-71
2022/10/28 08:57:51;;;;;;;16.75;10.43;;;;;;;31.41;24.89;96313.38;5048684;28;20276;-71
2022/10/28 09:00:23;;;;;;;15.52;9.90;;;;;;;31.18;24.97;96310.34;5047997;28;21282;-71
2022/10/28 09:02:59;;;;;;;19.00;10.00;;;;;;;30.04;26.69;96307.97;5048563;28;20198;-72
2022/10/28 09:05:27;;;;;;;16.77;10.15;;;;;;;30.29;26.52;96312.63;5048328;28;20201;-71
2022/10/28 09:07:55;;;;;;;14.98;10.10;;;;;;;30.47;26.25;96307.44;5052224;28;20319;-70
2022/10/28 09:10:47;;;;;;;15.18;9.38;;;;;;;29.63;26.89;96296.81;5053056;28;20695;-71
2022/10/28 09:13:23;;;;;;;16.02;8.75;;;;;;;28.16;29.06;96302.66;5050865;28;20210;-73
2022/10/28 09:16:00;;;;;;;14.50;9.32;;;;;;;28.75;29.07;96296.75;5051757;28;20206;-72
2022/10/28 09:18:45;;;;;;;16.40;9.70;;;;;;;28.95;27.93;96295.91;5047821;28;20210;-71
2022/10/28 09:21:18;;;;;;;11.75;9.88;;;;;;;28.38;28.90;96297.31;5050244;28;20202;-71
2022/10/28 09:23:50;;;;;;;14.90;10.63;;;;;;;27.36;30.62;96294.50;5051199;28;20723;-70
2022/10/28 09:26:23;;;;;;;20.40;14.63;;;;;;;27.56;30.39;96283.25;5047684;28;20271;-71
2022/10/28 09:29:01;;;;;;;25.58;12.05;;;;;;;26.45;31.46;96286.09;5048215;28;20650;-69
2022/10/28 09:31:35;;;;;;;16.38;10.18;;;;;;;26.26;32.03;96292.66;5051125;28;20272;-70
2022/10/28 09:34:13;;;;;;;13.68;9.07;;;;;;;24.63;35.06;96282.97;5052127;28;20201;-71
2022/10/28 09:36:45;;;;;;;15.88;9.57;;;;;;;23.86;36.62;96268.34;5052019;28;20238;-72
2022/10/28 09:39:18;;;;;;;15.02;9.43;;;;;;;23.54;36.92;96273.91;5051517;28;20275;-70
2022/10/28 09:41:47;;;;;;;11.73;9.15;;;;;;;22.59;38.97;96279.06;5050867;28;20283;-72
2022/10/28 09:44:20;;;;;;;15.27;9.13;;;;;;;21.87;41.10;96267.03;5051160;28;20276;-72
2022/10/28 09:46:53;;;;;;;9.75;8.70;;;;;;;20.95;43.37;96270.59;5050656;28;20210;-72
2022/10/28 09:49:25;;;;;;;9.20;7.70;;;;;;;20.77;43.97;96264.69;5051148;28;20206;-72
2022/10/28 09:51:56;;;;;;;15.15;8.05;;;;;;;20.17;45.44;96255.84;5050771;28;20207;-71
2022/10/28 09:54:34;;;;;;;8.85;8.00;;;;;;;20.29;45.88;96248.28;5049714;28;20237;-71
2022/10/28 09:57:02;;;;;;;7.75;7.03;;;;;;;20.73;44.32;96241.69;5050021;28;20323;-72
2022/10/28 09:59:30;;;;;;;11.07;7.43;;;;;;;20.79;44.36;96247.31;5049634;28;20211;-71
2022/10/28 10:01:58;;;;;;;12.20;7.10;;;;;;;20.82;44.28;96246.31;5049939;28;20628;-72
2022/10/28 10:04:30;;;;;;;8.20;7.20;;;;;;;20.99;43.95;96246.25;5049791;28;20523;-72
2022/10/28 10:07:00;;;;;;;9.13;7.15;;;;;;;20.82;44.38;96241.16;5052594;28;20233;-72
2022/10/28 10:09:31;;;;;;;7.38;6.28;;;;;;;20.72;44.57;96246.03;5053438;28;21070;-71
2022/10/28 10:12:02;;;;;;;6.45;5.57;;;;;;;20.38;45.34;96244.41;5050830;28;20287;-73
2022/10/28 10:14:36;;;;;;;8.77;5.90;;;;;;;20.59;44.69;96235.50;5052128;28;21185;-71
2022/10/28 10:17:06;;;;;;;5.18;4.65;;;;;;;20.85;44.78;96235.81;5050767;28;21275;-73
2022/10/28 10:19:58;;;;;;;8.30;4.85;;;;;;;20.96;44.46;96239.50;5051125;28;20259;-72
2022/10/28 10:22:30;;;;;;;6.60;4.90;;;;;;;20.73;44.95;96239.94;5051401;28;20293;-71
2022/10/28 10:24:57;;;;;;;8.18;5.82;;;;;;;20.81;44.44;96231.75;5051410;28;22044;-70
2022/10/28 10:27:26;;;;;;;8.35;5.78;;;;;;;20.71;44.31;96223.69;5051391;28;20303;-70
2022/10/28 10:29:54;;;;;;;15.63;7.45;;;;;;;20.43;46.15;96223.50;5051247;28;20258;-69
2022/10/28 10:32:26;;;;;;;9.77;7.53;;;;;;;20.64;47.48;96219.75;5050136;28;20203;-69
2022/10/28 10:35:00;;;;;;;17.42;12.32;;;;;;;21.06;46.08;96211.34;5050730;28;20311;-69
2022/10/28 10:37:29;;;;;;;10.65;6.55;;;;;;;21.06;44.79;96219.94;5050125;28;20755;-69
2022/10/28 10:40:05;;;;;;;7.07;6.30;;;;;;;21.15;44.40;96217.78;5050114;28;20210;-69
2022/10/28 10:42:32;;;;;;;6.50;4.60;;;;;;;21.09;43.59;96208.59;5050575;28;20275;-71
2022/10/28 10:45:02;;;;;;;5.30;4.13;;;;;;;21.06;43.71;96208.78;5050538;28;20206;-72
2022/10/28 10:47:30;;;;;;;6.25;4.78;;;;;;;21.33;42.95;96198.63;5050302;28;20702;-72
2022/10/28 10:50:23;;;;;;;7.32;4.35;;;;;;;21.39;42.48;96195.69;5051432;28;20249;-71
2022/10/28 10:52:53;;;;;;;4.70;3.92;;;;;;;21.18;42.39;96191.75;5050605;28;20737;-72
2022/10/28 10:55:30;;;;;;;4.63;3.53;;;;;;;21.13;42.82;96196.34;5050922;28;20291;-72
2022/10/28 10:57:57;;;;;;;6.80;3.58;;;;;;;20.87;42.34;96198.66;5051077;28;20692;-73
2022/10/28 11:00:28;;;;;;;6.50;3.22;;;;;;;21.06;41.71;96188.94;5050344;28;20650;-73
2022/10/28 11:02:57;;;;;;;7.15;3.55;;;;;;;21.23;41.68;96182.84;5049769;28;20237;-72
2022/10/28 11:05:24;;;;;;;4.03;3.72;;;;;;;21.24;42.13;96181.91;5051031;28;20202;-73
2022/10/28 11:07:52;;;;;;;5.25;3.90;;;;;;;21.20;41.60;96175.25;5050018;28;20275;-72
2022/10/28 11:10:24;;;;;;;3.53;3.22;;;;;;;21.33;40.76;96177.94;5050664;28;20254;-72
2022/10/28 11:12:53;;;;;;;4.35;3.60;;;;;;;21.59;40.43;96177.25;5049871;28;20211;-72
2022/10/28 11:15:26;;;;;;;4.43;3.40;;;;;;;21.76;39.73;96172.84;5050610;28;20232;-72
2022/10/28 11:18:00;;;;;;;3.70;3.40;;;;;;;21.78;39.11;96165.81;5049999;28;20206;-72
2022/10/28 11:20:32;;;;;;;4.63;2.90;;;;;;;21.46;38.96;96171.16;5050899;28;20226;-73
2022/10/28 11:23:31;;;;;;;4.03;2.78;;;;;;;21.33;38.33;96165.03;5049020;28;21157;-73
2022/10/28 11:26:01;;;;;;;4.90;2.80;;;;;;;20.81;39.16;96165.41;5051285;28;20260;-72
2022/10/28 11:28:45;;;;;;;3.25;3.05;;;;;;;20.82;39.56;96169.66;5049154;28;20253;-71
2022/10/28 11:31:33;;;;;;;3.05;2.85;;;;;;;20.99;39.22;96161.78;5049644;28;20253;-72
2022/10/28 11:34:28;;;;;;;2.65;2.35;;;;;;;20.88;39.24;96161.56;5049944;28;20672;-71
2022/10/28 11:37:08;;;;;;;4.93;2.17;;;;;;;21.16;38.75;96153.06;5050552;28;20260;-72
2022/10/28 11:39:42;;;;;;;2.38;2.17;;;;;;;21.27;38.37;96155.06;5049506;28;20292;-71